createdAt,value
2022-12-07T00:00:58.677Z,30.50
2022-12-07T00:01:58.674Z,29.10
2022-12-07T00:02:58.727Z,30.10
2022-12-07T00:03:58.641Z,27.70
2022-12-07T00:04:58.625Z,29.30
2022-12-07T00:05:58.607Z,29.80
2022-12-07T00:06:58.598Z,27.80
2022-12-07T00:07:58.613Z,28.80
2022-12-07T00:08:58.567Z,29.60
2022-12-07T00:09:58.795Z,28.90
2022-12-07T00:10:58.548Z,27.60
2022-12-07T00:11:58.539Z,29.30
2022-12-07T00:12:58.538Z,29.50
2022-12-07T00:13:58.519Z,28.80
2022-12-07T00:14:58.498Z,27.10
2022-12-07T00:15:58.479Z,28.60
2022-12-07T00:16:58.466Z,28.60
2022-12-07T00:17:58.459Z,28.50
2022-12-07T00:18:58.678Z,31.80
2022-12-07T00:19:58.489Z,29.10
2022-12-07T00:20:58.418Z,29.20
2022-12-07T00:21:58.401Z,27.60
2022-12-07T00:22:58.398Z,29.70
2022-12-07T00:23:58.383Z,29.70
2022-12-07T00:24:58.372Z,33.90
2022-12-07T00:25:58.351Z,30.20
2022-12-07T00:26:58.340Z,30.70
2022-12-07T00:27:58.330Z,29.50
2022-12-07T00:28:58.317Z,27.60
2022-12-07T00:29:58.561Z,29.40
2022-12-07T00:30:58.288Z,28.90
2022-12-07T00:31:58.329Z,29.90
2022-12-07T00:32:58.262Z,30.60
2022-12-07T00:33:58.244Z,29.70
2022-12-07T00:34:58.241Z,31.20
2022-12-07T00:35:58.220Z,30.90
2022-12-07T00:36:58.225Z,31.80
2022-12-07T00:37:58.205Z,30.90
2022-12-07T00:38:58.180Z,30.80
2022-12-07T00:39:58.355Z,30.40
2022-12-07T00:40:58.151Z,30.10
2022-12-07T00:41:58.150Z,28.60
2022-12-07T00:42:58.134Z,30.70
2022-12-07T00:43:58.113Z,29.00
2022-12-07T00:44:58.114Z,27.90
2022-12-07T00:45:58.196Z,29.50
2022-12-07T00:46:58.082Z,31.60
2022-12-07T00:47:58.068Z,29.70
2022-12-07T00:48:58.052Z,29.30
2022-12-07T00:49:58.075Z,28.60
2022-12-07T00:50:58.014Z,31.50
2022-12-07T00:51:58.002Z,32.30
2022-12-07T00:52:58.003Z,31.80
2022-12-07T00:53:57.976Z,33.60
2022-12-07T00:54:57.968Z,31.60
2022-12-07T00:55:57.973Z,33.60
2022-12-07T00:56:57.945Z,32.80
2022-12-07T00:57:57.939Z,33.40
2022-12-07T00:58:57.929Z,32.80
2022-12-07T00:59:57.979Z,32.80
2022-12-07T01:00:57.917Z,34.30
2022-12-07T01:01:57.924Z,33.10
2022-12-07T01:02:57.940Z,30.60
2022-12-07T01:03:57.865Z,31.80
2022-12-07T01:04:57.856Z,35.20
2022-12-07T01:05:57.837Z,38.30
2022-12-07T01:06:57.814Z,32.60
2022-12-07T01:07:57.854Z,32.80
2022-12-07T01:08:58.066Z,33.50
2022-12-07T01:09:57.768Z,33.00
2022-12-07T01:10:57.776Z,34.70
2022-12-07T01:11:57.752Z,38.40
2022-12-07T01:12:57.754Z,35.40
2022-12-07T01:13:57.717Z,37.40
2022-12-07T01:14:57.708Z,39.90
2022-12-07T01:15:57.697Z,34.60
2022-12-07T01:16:57.803Z,35.90
2022-12-07T01:17:57.681Z,36.80
2022-12-07T01:18:57.675Z,33.00
2022-12-07T01:19:57.655Z,41.20
2022-12-07T01:20:57.636Z,33.60
2022-12-07T01:21:57.619Z,35.60
2022-12-07T01:22:57.630Z,35.00
2022-12-07T01:23:57.597Z,33.80
2022-12-07T01:24:57.581Z,36.20
2022-12-07T01:25:57.579Z,33.50
2022-12-07T01:26:57.567Z,32.60
2022-12-07T01:27:57.559Z,36.90
2022-12-07T01:28:57.543Z,35.60
2022-12-07T01:29:57.756Z,31.90
2022-12-07T01:30:57.528Z,32.80
2022-12-07T01:31:57.491Z,42.10
2022-12-07T01:32:57.491Z,31.30
2022-12-07T01:33:57.483Z,32.00
2022-12-07T01:34:57.459Z,31.10
2022-12-07T01:35:57.442Z,31.60
2022-12-07T01:36:57.439Z,31.20
2022-12-07T01:37:57.672Z,30.90
2022-12-07T01:38:57.546Z,30.90
2022-12-07T01:39:57.401Z,31.30
2022-12-07T01:40:57.387Z,31.40
2022-12-07T01:41:57.373Z,31.00
2022-12-07T01:42:57.357Z,31.30
2022-12-07T01:43:57.353Z,29.70
2022-12-07T01:44:57.332Z,30.30
2022-12-07T01:45:57.479Z,29.60
2022-12-07T01:46:57.303Z,28.50
2022-12-07T01:47:57.331Z,31.20
2022-12-07T01:48:57.283Z,33.50
2022-12-07T01:49:57.273Z,40.90
2022-12-07T01:50:57.494Z,31.60
2022-12-07T01:51:58.205Z,34.50
2022-12-07T01:52:57.238Z,34.90
2022-12-07T01:53:57.221Z,32.70
2022-12-07T01:54:57.207Z,32.10
2022-12-07T01:55:57.198Z,33.60
2022-12-07T01:56:57.176Z,32.00
2022-12-07T01:57:57.192Z,33.90
2022-12-07T01:58:57.158Z,32.90
2022-12-07T01:59:57.145Z,33.50
2022-12-07T02:00:57.126Z,32.10
2022-12-07T02:01:57.209Z,31.30
2022-12-07T02:02:57.148Z,30.30
2022-12-07T02:03:57.097Z,33.70
2022-12-07T02:04:57.083Z,28.90
2022-12-07T02:05:57.069Z,29.60
2022-12-07T02:06:58.006Z,30.50
2022-12-07T02:07:57.148Z,29.90
2022-12-07T02:08:57.044Z,30.50
2022-12-07T02:09:58.010Z,30.50
2022-12-07T02:10:57.255Z,30.90
2022-12-07T02:11:56.998Z,29.40
2022-12-07T02:12:56.997Z,29.50
2022-12-07T02:13:56.982Z,27.90
2022-12-07T02:14:57.225Z,29.80
2022-12-07T02:15:57.060Z,30.00
2022-12-07T02:16:56.937Z,29.70
2022-12-07T02:17:56.918Z,27.60
2022-12-07T02:18:56.916Z,29.30
2022-12-07T02:19:56.895Z,30.00
2022-12-07T02:20:56.878Z,30.30
2022-12-07T02:21:56.868Z,29.50
2022-12-07T02:22:56.876Z,28.70
2022-12-07T02:23:56.848Z,30.30
2022-12-07T02:24:56.838Z,30.60
2022-12-07T02:25:56.819Z,30.70
2022-12-07T02:26:56.812Z,30.40
2022-12-07T02:27:56.801Z,29.10
2022-12-07T02:28:56.790Z,30.00
2022-12-07T02:29:56.780Z,30.50
2022-12-07T02:30:56.781Z,30.80
2022-12-07T02:31:56.746Z,30.20
2022-12-07T02:32:56.752Z,28.30
2022-12-07T02:33:56.735Z,29.80
2022-12-07T02:34:56.703Z,30.80
2022-12-07T02:35:56.701Z,29.80
2022-12-07T02:36:56.680Z,35.30
2022-12-07T02:37:56.711Z,30.80
2022-12-07T02:38:56.659Z,29.60
2022-12-07T02:39:56.912Z,29.70
2022-12-07T02:40:56.631Z,30.10
2022-12-07T02:41:56.618Z,29.00
2022-12-07T02:42:56.622Z,29.60
2022-12-07T02:43:56.605Z,28.50
2022-12-07T02:44:56.585Z,30.60
2022-12-07T02:45:56.663Z,30.60
2022-12-07T02:46:56.561Z,32.30
2022-12-07T02:47:56.563Z,33.30
2022-12-07T02:48:56.552Z,30.10
2022-12-07T02:49:56.539Z,39.30
2022-12-07T02:50:56.506Z,30.10
2022-12-07T02:51:56.501Z,29.40
2022-12-07T02:52:56.492Z,29.10
2022-12-07T02:53:56.463Z,31.40
2022-12-07T02:54:56.494Z,29.60
2022-12-07T02:55:56.453Z,32.90
2022-12-07T02:56:56.437Z,28.50
2022-12-07T02:57:56.477Z,31.50
2022-12-07T02:58:56.412Z,31.00
2022-12-07T02:59:56.391Z,30.70
2022-12-07T03:00:56.382Z,30.20
2022-12-07T03:01:56.449Z,36.60
2022-12-07T03:02:56.435Z,30.00
2022-12-07T03:03:56.349Z,28.30
2022-12-07T03:04:56.336Z,30.40
2022-12-07T03:05:56.315Z,27.50
2022-12-07T03:06:56.304Z,34.60
2022-12-07T03:07:56.314Z,28.60
2022-12-07T03:08:56.295Z,29.50
2022-12-07T03:09:56.265Z,28.60
2022-12-07T03:10:56.276Z,28.10
2022-12-07T03:11:56.247Z,31.00
2022-12-07T03:12:56.248Z,30.20
2022-12-07T03:13:56.225Z,29.40
2022-12-07T03:14:56.218Z,27.80
2022-12-07T03:15:56.255Z,30.90
2022-12-07T03:16:56.186Z,29.00
2022-12-07T03:17:56.190Z,27.50
2022-12-07T03:18:56.156Z,33.70
2022-12-07T03:19:57.123Z,26.90
2022-12-07T03:20:56.160Z,28.70
2022-12-07T03:21:56.127Z,28.90
2022-12-07T03:22:56.136Z,27.60
2022-12-07T03:23:56.100Z,27.80
2022-12-07T03:24:56.086Z,28.80
2022-12-07T03:26:00.393Z,26.70
2022-12-07T03:26:56.072Z,27.00
2022-12-07T03:27:56.058Z,27.70
2022-12-07T03:28:56.037Z,25.20
2022-12-07T03:29:56.039Z,28.00
2022-12-07T03:30:56.073Z,31.40
2022-12-07T03:31:56.001Z,26.20
2022-12-07T03:32:55.999Z,26.70
2022-12-07T03:33:55.968Z,27.50
2022-12-07T03:34:55.958Z,25.00
2022-12-07T03:35:55.948Z,26.70
2022-12-07T03:36:55.939Z,27.10
2022-12-07T03:37:55.929Z,25.50
2022-12-07T03:38:55.938Z,23.80
2022-12-07T03:39:55.897Z,26.10
2022-12-07T03:40:55.894Z,25.70
2022-12-07T03:41:55.889Z,24.70
2022-12-07T03:42:55.868Z,24.80
2022-12-07T03:43:55.840Z,24.80
2022-12-07T03:44:55.830Z,24.20
2022-12-07T03:45:55.841Z,23.50
2022-12-07T03:46:55.868Z,25.50
2022-12-07T03:47:55.804Z,25.90
2022-12-07T03:48:55.790Z,26.50
2022-12-07T03:49:55.770Z,24.10
2022-12-07T03:50:55.759Z,25.20
2022-12-07T03:51:55.753Z,26.50
2022-12-07T03:52:55.750Z,26.60
2022-12-07T03:53:55.722Z,27.00
2022-12-07T03:54:55.712Z,25.90
2022-12-07T03:55:55.692Z,26.50
2022-12-07T03:56:56.639Z,25.40
2022-12-07T03:57:55.683Z,25.90
2022-12-07T03:58:55.664Z,26.40
2022-12-07T03:59:55.653Z,26.00
2022-12-07T04:00:55.642Z,23.30
2022-12-07T04:01:55.772Z,24.00
2022-12-07T04:02:55.668Z,25.30
2022-12-07T04:03:55.613Z,26.00
2022-12-07T04:04:55.583Z,23.60
2022-12-07T04:05:55.579Z,24.20
2022-12-07T04:06:55.557Z,24.80
2022-12-07T04:07:55.599Z,25.10
2022-12-07T04:08:55.542Z,25.40
2022-12-07T04:09:55.524Z,25.50
2022-12-07T04:10:55.513Z,21.70
2022-12-07T04:11:55.497Z,24.00
2022-12-07T04:12:55.493Z,23.60
2022-12-07T04:13:55.481Z,24.70
2022-12-07T04:14:55.465Z,25.20
2022-12-07T04:15:55.546Z,23.90
2022-12-07T04:16:55.435Z,22.70
2022-12-07T04:17:55.436Z,24.00
2022-12-07T04:18:55.407Z,24.20
2022-12-07T04:19:55.426Z,24.10
2022-12-07T04:20:55.385Z,24.50
2022-12-07T04:21:55.388Z,25.20
2022-12-07T04:22:55.370Z,25.20
2022-12-07T04:23:55.352Z,25.50
2022-12-07T04:24:55.344Z,24.50
2022-12-07T04:25:55.335Z,23.80
2022-12-07T04:26:55.305Z,23.40
2022-12-07T04:27:55.310Z,24.20
2022-12-07T04:28:55.301Z,23.50
2022-12-07T04:29:55.276Z,22.10
2022-12-07T04:30:55.337Z,23.30
2022-12-07T04:31:55.304Z,21.90
2022-12-07T04:32:55.257Z,21.90
2022-12-07T04:33:55.231Z,22.00
2022-12-07T04:34:55.982Z,22.90
2022-12-07T04:35:55.199Z,24.10
2022-12-07T04:36:55.208Z,22.40
2022-12-07T04:37:55.187Z,20.30
2022-12-07T04:38:55.177Z,21.50
2022-12-07T04:39:55.148Z,21.00
2022-12-07T04:40:55.134Z,21.00
2022-12-07T04:41:55.124Z,22.00
2022-12-07T04:42:55.119Z,22.30
2022-12-07T04:43:55.948Z,20.70
2022-12-07T04:44:55.094Z,21.60
2022-12-07T04:45:55.070Z,21.50
2022-12-07T04:46:55.225Z,22.80
2022-12-07T04:47:55.068Z,21.10
2022-12-07T04:48:55.069Z,21.20
2022-12-07T04:49:55.033Z,20.90
2022-12-07T04:50:55.020Z,20.20
2022-12-07T04:51:55.010Z,20.20
2022-12-07T04:52:55.028Z,20.70
2022-12-07T04:53:54.961Z,20.20
2022-12-07T04:54:54.971Z,20.40
2022-12-07T04:55:54.948Z,19.60
2022-12-07T04:56:54.939Z,20.80
2022-12-07T04:57:55.873Z,22.00
2022-12-07T04:58:54.914Z,21.50
2022-12-07T04:59:54.889Z,20.40
2022-12-07T05:00:55.621Z,20.30
2022-12-07T05:01:54.921Z,20.80
2022-12-07T05:02:55.760Z,20.10
2022-12-07T05:04:02.601Z,20.50
2022-12-07T05:05:04.718Z,19.30
2022-12-07T05:06:11.772Z,19.00
2022-12-07T05:07:00.685Z,21.30
2022-12-07T05:08:01.356Z,19.80
2022-12-07T05:09:02.376Z,21.10
2022-12-07T05:09:54.765Z,19.20
2022-12-07T05:10:55.762Z,21.30
2022-12-07T05:11:54.744Z,20.80
2022-12-07T05:12:56.933Z,21.80
2022-12-07T05:13:55.950Z,22.40
2022-12-07T05:14:54.713Z,21.00
2022-12-07T05:15:55.682Z,20.80
2022-12-07T05:16:54.673Z,20.60
2022-12-07T05:17:54.664Z,22.50
2022-12-07T05:18:54.655Z,21.00
2022-12-07T05:19:54.633Z,22.80
2022-12-07T05:20:54.619Z,22.00
2022-12-07T05:21:54.604Z,22.10
2022-12-07T05:22:54.605Z,21.60
2022-12-07T05:23:54.609Z,22.10
2022-12-07T05:24:54.570Z,21.30
2022-12-07T05:25:54.555Z,21.80
2022-12-07T05:26:54.549Z,22.20
2022-12-07T05:27:55.510Z,21.00
2022-12-07T05:28:54.525Z,21.70
2022-12-07T05:29:54.511Z,21.70
2022-12-07T05:30:59.671Z,21.80
2022-12-07T05:31:54.539Z,23.60
2022-12-07T05:32:54.522Z,22.30
2022-12-07T05:33:54.467Z,23.40
2022-12-07T05:34:54.457Z,21.10
2022-12-07T05:35:54.442Z,22.20
2022-12-07T05:36:54.429Z,20.40
2022-12-07T05:37:54.425Z,23.00
2022-12-07T05:38:55.364Z,21.80
2022-12-07T05:39:54.404Z,21.10
2022-12-07T05:40:55.335Z,22.10
2022-12-07T05:41:54.358Z,21.30
2022-12-07T05:42:54.357Z,21.60
2022-12-07T05:43:54.326Z,20.80
2022-12-07T05:44:54.327Z,19.80
2022-12-07T05:45:55.307Z,20.40
2022-12-07T05:46:54.298Z,22.20
2022-12-07T05:47:54.293Z,21.20
2022-12-07T05:48:54.279Z,20.50
2022-12-07T05:49:54.268Z,21.90
2022-12-07T05:50:54.261Z,20.90
2022-12-07T05:51:54.238Z,21.30
2022-12-07T05:52:55.189Z,21.20
2022-12-07T05:53:54.209Z,21.10
2022-12-07T05:54:54.205Z,21.00
2022-12-07T05:55:54.188Z,21.40
2022-12-07T05:56:54.179Z,21.20
2022-12-07T05:57:55.132Z,21.60
2022-12-07T05:58:54.151Z,22.70
2022-12-07T05:59:54.137Z,20.90
2022-12-07T06:00:55.085Z,21.80
2022-12-07T06:01:54.276Z,23.20
2022-12-07T06:02:54.185Z,22.20
2022-12-07T06:03:54.103Z,23.30
2022-12-07T06:04:54.081Z,22.90
2022-12-07T06:05:55.111Z,22.80
2022-12-07T06:06:54.042Z,24.00
2022-12-07T06:08:02.624Z,24.40
2022-12-07T06:12:53.092Z,23.20
2022-12-07T06:12:59.051Z,24.50
2022-12-07T06:14:01.463Z,24.60
2022-12-07T06:14:57.832Z,25.80
2022-12-07T06:15:57.823Z,24.60
2022-12-07T06:16:58.093Z,24.20
2022-12-07T06:17:57.803Z,25.90
2022-12-07T06:18:57.786Z,26.50
2022-12-07T06:19:57.808Z,28.10
2022-12-07T06:20:57.751Z,25.60
2022-12-07T06:21:58.709Z,26.60
2022-12-07T06:22:57.733Z,26.20
2022-12-07T06:23:57.717Z,26.30
2022-12-07T06:24:57.704Z,25.40
2022-12-07T06:25:57.694Z,26.70
2022-12-07T06:26:57.674Z,26.60
2022-12-07T06:27:57.663Z,26.80
2022-12-07T06:28:57.665Z,26.50
2022-12-07T06:29:57.633Z,29.60
2022-12-07T06:30:57.621Z,26.90
2022-12-07T06:31:57.662Z,27.50
2022-12-07T06:32:58.562Z,29.40
2022-12-07T06:33:58.535Z,28.60
2022-12-07T06:34:58.524Z,30.60
2022-12-07T06:35:57.575Z,29.00
2022-12-07T06:36:57.557Z,31.00
2022-12-07T06:37:57.963Z,30.40
2022-12-07T06:38:58.485Z,28.70
2022-12-07T06:39:57.504Z,29.70
2022-12-07T06:40:57.504Z,29.80
2022-12-07T06:41:57.476Z,27.80
2022-12-07T06:42:58.429Z,27.80
2022-12-07T06:43:57.455Z,29.50
2022-12-07T06:44:57.445Z,30.00
2022-12-07T06:45:57.523Z,32.30
2022-12-07T06:47:18.759Z,31.10
2022-12-07T06:47:59.374Z,31.80
2022-12-07T06:48:57.395Z,33.40
2022-12-07T06:49:57.380Z,33.50
2022-12-07T06:50:58.317Z,33.60
2022-12-07T06:51:57.357Z,36.40
2022-12-07T06:52:57.358Z,34.10
2022-12-07T06:53:58.267Z,43.10
2022-12-07T06:54:57.317Z,34.90
2022-12-07T06:55:57.528Z,35.80
2022-12-07T06:56:57.298Z,36.20
2022-12-07T06:57:57.520Z,35.70
2022-12-07T06:58:57.277Z,35.80
2022-12-07T06:59:57.259Z,51.70
2022-12-07T07:00:57.275Z,37.90
2022-12-07T07:01:57.252Z,35.60
2022-12-07T07:02:58.291Z,47.40
2022-12-07T07:03:57.199Z,37.60
2022-12-07T07:04:57.199Z,58.00
2022-12-07T07:05:57.187Z,32.80
2022-12-07T07:07:00.167Z,36.20
2022-12-07T07:08:21.327Z,41.10
2022-12-07T07:08:59.454Z,47.90
2022-12-07T07:09:58.081Z,38.80
2022-12-07T07:10:57.137Z,37.70
2022-12-07T07:11:57.099Z,41.40
2022-12-07T07:12:58.059Z,47.20
2022-12-07T07:13:58.040Z,38.60
2022-12-07T07:14:58.032Z,49.20
2022-12-07T07:15:58.008Z,48.60
2022-12-07T07:16:57.324Z,58.20
2022-12-07T07:17:57.178Z,60.20
2022-12-07T07:18:57.036Z,62.40
2022-12-07T07:19:57.012Z,58.60
2022-12-07T07:20:56.994Z,52.40
2022-12-07T07:21:56.982Z,58.30
2022-12-07T07:22:57.025Z,54.50
2022-12-07T07:23:56.983Z,50.30
2022-12-07T07:24:56.942Z,56.90
2022-12-07T07:25:56.965Z,54.60
2022-12-07T07:26:56.983Z,52.40
2022-12-07T07:27:57.875Z,59.60
2022-12-07T07:28:56.893Z,61.20
2022-12-07T07:29:56.884Z,49.40
2022-12-07T07:30:56.974Z,56.60
2022-12-07T07:31:58.563Z,64.10
2022-12-07T07:32:57.850Z,55.00
2022-12-07T07:33:56.822Z,42.10
2022-12-07T07:34:56.814Z,39.50
2022-12-07T07:35:56.804Z,40.80
2022-12-07T07:36:56.785Z,40.40
2022-12-07T07:37:56.785Z,51.60
2022-12-07T07:38:56.996Z,40.40
2022-12-07T07:39:56.753Z,49.10
2022-12-07T07:40:56.735Z,39.30
2022-12-07T07:41:56.720Z,50.80
2022-12-07T07:42:57.674Z,49.40
2022-12-07T07:43:56.707Z,47.10
2022-12-07T07:44:56.701Z,47.00
2022-12-07T07:45:57.706Z,49.10
2022-12-07T07:46:57.623Z,39.50
2022-12-07T07:47:56.666Z,45.30
2022-12-07T07:48:56.633Z,39.10
2022-12-07T07:49:56.619Z,38.10
2022-12-07T07:50:56.612Z,36.30
2022-12-07T07:51:56.617Z,41.00
2022-12-07T07:52:56.667Z,36.20
2022-12-07T07:53:56.567Z,38.40
2022-12-07T07:54:56.552Z,43.70
2022-12-07T07:55:56.547Z,36.10
2022-12-07T07:56:56.527Z,37.20
2022-12-07T07:57:56.519Z,36.50
2022-12-07T07:58:56.510Z,37.50
2022-12-07T07:59:56.489Z,37.60
2022-12-07T08:00:56.488Z,34.20
2022-12-07T08:01:56.537Z,32.10
2022-12-07T08:02:56.479Z,32.80
2022-12-07T08:03:56.441Z,32.90
2022-12-07T08:04:56.442Z,32.20
2022-12-07T08:05:56.417Z,38.90
2022-12-07T08:06:56.389Z,32.40
2022-12-07T08:07:56.438Z,31.70
2022-12-07T08:08:56.366Z,33.50
2022-12-07T08:09:56.365Z,33.30
2022-12-07T08:10:56.339Z,33.50
2022-12-07T08:11:56.348Z,32.20
2022-12-07T08:12:56.332Z,30.60
2022-12-07T08:13:56.310Z,32.00
2022-12-07T08:14:56.303Z,31.90
2022-12-07T08:15:56.356Z,42.50
2022-12-07T08:16:56.282Z,34.00
2022-12-07T08:17:56.291Z,33.60
2022-12-07T08:18:56.261Z,34.50
2022-12-07T08:19:56.475Z,35.50
2022-12-07T08:20:56.235Z,33.40
2022-12-07T08:21:56.251Z,36.80
2022-12-07T08:22:56.198Z,33.80
2022-12-07T08:23:56.171Z,36.70
2022-12-07T08:24:56.165Z,32.80
2022-12-07T08:25:56.151Z,33.20
2022-12-07T08:26:56.142Z,33.90
2022-12-07T08:27:56.143Z,38.60
2022-12-07T08:28:56.112Z,33.00
2022-12-07T08:29:56.101Z,32.00
2022-12-07T08:30:56.107Z,31.50
2022-12-07T08:31:56.070Z,37.10
2022-12-07T08:32:56.076Z,30.40
2022-12-07T08:33:56.043Z,34.70
2022-12-07T08:34:56.031Z,32.40
2022-12-07T08:35:56.024Z,31.90
2022-12-07T08:36:56.004Z,30.10
2022-12-07T08:37:56.005Z,30.60
2022-12-07T08:39:29.924Z,35.10
2022-12-07T08:39:56.965Z,29.80
2022-12-07T08:40:55.953Z,41.30
2022-12-07T08:41:55.936Z,31.10
2022-12-07T08:42:55.934Z,28.20
2022-12-07T08:43:55.914Z,28.70
2022-12-07T08:44:55.902Z,29.60
2022-12-07T08:45:55.924Z,35.50
2022-12-07T08:46:55.877Z,30.70
2022-12-07T08:47:55.865Z,34.00
2022-12-07T08:48:55.855Z,28.70
2022-12-07T08:49:56.799Z,30.90
2022-12-07T08:50:55.816Z,27.10
2022-12-07T08:51:55.805Z,35.10
2022-12-07T08:52:55.806Z,25.20
2022-12-07T08:53:55.776Z,27.80
2022-12-07T08:54:55.765Z,26.90
2022-12-07T08:55:55.747Z,24.90
2022-12-07T08:56:59.390Z,26.30
2022-12-07T08:57:55.735Z,28.50
2022-12-07T08:58:55.751Z,29.70
2022-12-07T08:59:55.706Z,27.80
2022-12-07T09:00:55.697Z,25.80
2022-12-07T09:01:55.731Z,25.80
2022-12-07T09:02:55.693Z,21.60
2022-12-07T09:03:55.642Z,29.40
2022-12-07T09:04:55.634Z,22.90
2022-12-07T09:05:55.669Z,24.80
2022-12-07T09:06:55.704Z,23.70
2022-12-07T09:07:55.657Z,22.20
2022-12-07T09:08:55.599Z,31.10
2022-12-07T09:09:55.559Z,24.60
2022-12-07T09:10:55.560Z,21.60
2022-12-07T09:11:55.558Z,20.10
2022-12-07T09:12:55.549Z,23.20
2022-12-07T09:13:55.520Z,21.60
2022-12-07T09:14:55.509Z,21.50
2022-12-07T09:15:55.568Z,22.80
2022-12-07T09:16:55.499Z,21.70
2022-12-07T09:17:55.480Z,25.00
2022-12-07T09:18:56.413Z,31.20
2022-12-07T09:19:55.446Z,21.40
2022-12-07T09:20:55.436Z,20.90
2022-12-07T09:21:55.442Z,21.60
2022-12-07T09:22:55.422Z,20.50
2022-12-07T09:23:55.386Z,27.20
2022-12-07T09:24:55.388Z,18.30
2022-12-07T09:25:56.152Z,20.20
2022-12-07T09:26:55.364Z,27.00
2022-12-07T09:27:55.343Z,19.10
2022-12-07T09:28:55.366Z,20.20
2022-12-07T09:29:55.299Z,22.00
2022-12-07T09:31:56.323Z,21.20
2022-12-07T09:32:55.283Z,19.40
2022-12-07T09:33:55.305Z,19.40
2022-12-07T09:34:55.325Z,18.90
2022-12-07T09:35:55.232Z,19.10
2022-12-07T09:36:55.230Z,17.80
2022-12-07T09:37:55.223Z,26.90
2022-12-07T09:38:55.203Z,20.00
2022-12-07T09:39:55.173Z,19.40
2022-12-07T09:40:55.175Z,19.30
2022-12-07T09:41:55.143Z,17.30
2022-12-07T09:42:55.202Z,17.10
2022-12-07T09:43:55.122Z,22.60
2022-12-07T09:44:55.193Z,20.70
2022-12-07T09:45:55.191Z,24.00
2022-12-07T09:46:55.168Z,18.20
2022-12-07T09:47:55.100Z,16.10
2022-12-07T09:48:55.065Z,15.90
2022-12-07T09:49:55.049Z,23.30
2022-12-07T09:50:55.031Z,16.60
2022-12-07T09:51:55.033Z,15.20
2022-12-07T09:52:55.006Z,18.00
2022-12-07T09:53:55.248Z,18.00
2022-12-07T09:54:54.983Z,15.60
2022-12-07T09:55:54.967Z,22.00
2022-12-07T09:56:54.968Z,16.20
2022-12-07T09:57:55.182Z,17.00
2022-12-07T09:58:54.923Z,16.80
2022-12-07T09:59:54.916Z,16.50
2022-12-07T10:00:54.898Z,15.80
2022-12-07T10:01:54.938Z,16.10
2022-12-07T10:02:54.898Z,20.30
2022-12-07T10:03:54.856Z,15.90
2022-12-07T10:04:54.948Z,27.10
2022-12-07T10:05:54.835Z,17.20
2022-12-07T10:06:54.818Z,17.20
2022-12-07T10:07:54.917Z,16.10
2022-12-07T10:08:54.809Z,17.50
2022-12-07T10:09:54.773Z,16.30
2022-12-07T10:10:54.769Z,15.60
2022-12-07T10:11:54.760Z,15.60
2022-12-07T10:12:55.030Z,18.20
2022-12-07T10:13:54.748Z,23.20
2022-12-07T10:15:10.103Z,18.10
2022-12-07T10:15:55.747Z,16.30
2022-12-07T10:16:54.708Z,15.00
2022-12-07T10:17:54.739Z,20.30
2022-12-07T10:18:54.662Z,16.00
2022-12-07T10:19:54.655Z,16.10
2022-12-07T10:20:54.644Z,16.10
2022-12-07T10:21:54.631Z,16.30
2022-12-07T10:22:54.621Z,16.70
2022-12-07T10:23:54.603Z,15.60
2022-12-07T10:24:54.620Z,17.20
2022-12-07T10:25:54.581Z,15.70
2022-12-07T10:26:54.552Z,16.70
2022-12-07T10:27:54.563Z,15.70
2022-12-07T10:28:54.530Z,15.90
2022-12-07T10:29:54.524Z,14.20
2022-12-07T10:30:54.578Z,14.70
2022-12-07T10:31:54.576Z,15.60
2022-12-07T10:32:54.483Z,15.60
2022-12-07T10:33:54.483Z,15.20
2022-12-07T10:34:54.452Z,15.00
2022-12-07T10:35:54.452Z,15.20
2022-12-07T10:36:54.424Z,15.30
2022-12-07T10:37:55.382Z,13.30
2022-12-07T10:38:54.405Z,15.00
2022-12-07T10:39:54.393Z,14.60
2022-12-07T10:40:54.375Z,13.80
2022-12-07T10:41:54.365Z,14.80
2022-12-07T10:42:54.366Z,14.30
2022-12-07T10:43:54.353Z,15.10
2022-12-07T10:44:54.358Z,14.20
2022-12-07T10:46:13.261Z,15.40
2022-12-07T10:46:55.351Z,13.90
2022-12-07T10:47:54.288Z,14.10
2022-12-07T10:48:54.342Z,14.70
2022-12-07T10:49:54.542Z,14.30
2022-12-07T10:50:54.237Z,14.00
2022-12-07T10:51:54.237Z,15.60
2022-12-07T10:52:54.245Z,15.30
2022-12-07T10:53:54.199Z,14.80
2022-12-07T10:54:54.183Z,15.90
2022-12-07T10:55:54.421Z,13.80
2022-12-07T10:56:54.152Z,14.50
2022-12-07T10:57:54.158Z,13.80
2022-12-07T10:58:54.137Z,13.30
2022-12-07T10:59:54.117Z,15.20
2022-12-07T11:00:54.115Z,14.60
2022-12-07T11:01:54.143Z,21.70
2022-12-07T11:02:54.088Z,13.80
2022-12-07T11:03:54.078Z,15.30
2022-12-07T11:04:54.059Z,14.20
2022-12-07T11:05:54.040Z,14.00
2022-12-07T11:06:54.106Z,17.00
2022-12-07T11:07:57.033Z,13.80
2022-12-07T11:08:54.006Z,14.20
2022-12-07T11:10:10.352Z,18.80
2022-12-07T11:10:54.979Z,18.40
2022-12-07T11:11:53.960Z,13.60
2022-12-07T11:12:53.950Z,13.50
2022-12-07T11:13:53.941Z,13.60
2022-12-07T11:14:53.921Z,13.80
2022-12-07T11:15:53.962Z,13.90
2022-12-07T11:16:53.940Z,13.00
2022-12-07T11:17:53.891Z,13.20
2022-12-07T11:18:54.232Z,13.70
2022-12-07T11:19:53.883Z,13.20
2022-12-07T11:20:53.835Z,16.30
2022-12-07T11:21:53.842Z,12.90
2022-12-07T11:22:53.811Z,14.00
2022-12-07T11:23:53.833Z,14.70
2022-12-07T11:24:53.781Z,14.70
2022-12-07T11:25:53.770Z,14.10
2022-12-07T11:26:53.754Z,15.60
2022-12-07T11:27:53.758Z,13.90
2022-12-07T11:28:53.765Z,15.10
2022-12-07T11:29:53.724Z,14.60
2022-12-07T11:30:53.704Z,20.50
2022-12-07T11:31:53.753Z,13.10
2022-12-07T11:32:53.694Z,12.50
2022-12-07T11:33:53.744Z,17.70
2022-12-07T11:34:53.665Z,12.20
2022-12-07T11:35:53.654Z,13.20
2022-12-07T11:36:53.638Z,11.80
2022-12-07T11:37:53.624Z,12.10
2022-12-07T11:38:53.594Z,12.20
2022-12-07T11:39:53.593Z,13.40
2022-12-07T11:40:53.566Z,11.80
2022-12-07T11:41:53.556Z,11.60
2022-12-07T11:42:53.555Z,13.10
2022-12-07T11:43:53.529Z,14.80
2022-12-07T11:44:53.517Z,12.00
2022-12-07T11:45:53.506Z,11.80
2022-12-07T11:46:53.538Z,12.10
2022-12-07T11:47:53.501Z,12.20
2022-12-07T11:48:53.471Z,11.70
2022-12-07T11:49:53.452Z,12.10
2022-12-07T11:50:53.454Z,10.90
2022-12-07T11:51:53.440Z,12.40
2022-12-07T11:52:53.417Z,11.00
2022-12-07T11:53:53.411Z,10.70
2022-12-07T11:54:53.388Z,10.50
2022-12-07T11:55:54.325Z,9.90
2022-12-07T11:56:53.371Z,11.40
2022-12-07T11:57:53.416Z,16.00
2022-12-07T11:58:53.330Z,10.60
2022-12-07T11:59:53.319Z,10.40
2022-12-07T12:00:53.311Z,9.50
2022-12-07T12:01:53.344Z,9.90
2022-12-07T12:02:53.334Z,9.20
2022-12-07T12:03:53.745Z,10.20
2022-12-07T12:04:53.270Z,9.40
2022-12-07T12:05:53.241Z,11.20
2022-12-07T12:06:53.251Z,10.80
2022-12-07T12:09:54.198Z,9.70
2022-12-07T12:10:53.171Z,8.50
2022-12-07T12:14:54.114Z,17.80
2022-12-07T12:15:53.361Z,8.70
2022-12-07T12:16:53.156Z,20.90
2022-12-07T12:17:53.084Z,9.20
2022-12-07T12:18:53.061Z,11.10
2022-12-07T12:19:53.053Z,8.90
2022-12-07T12:20:53.048Z,9.60
2022-12-07T12:21:56.929Z,8.50
2022-12-07T12:22:54.021Z,14.70
2022-12-07T12:23:53.009Z,7.50
2022-12-07T12:24:53.001Z,12.20
2022-12-07T12:25:53.052Z,11.20
2022-12-07T12:26:52.984Z,14.70
2022-12-07T12:27:53.195Z,15.90
2022-12-07T12:28:52.946Z,9.80
2022-12-07T12:29:53.165Z,9.80
2022-12-07T12:30:52.926Z,7.60
2022-12-07T12:31:52.964Z,8.40
2022-12-07T12:32:52.891Z,9.80
2022-12-07T12:33:52.874Z,12.80
2022-12-07T12:34:52.846Z,13.00
2022-12-07T12:35:52.861Z,7.10
2022-12-07T12:36:52.886Z,7.40
2022-12-07T12:37:52.839Z,6.90
2022-12-07T12:38:52.817Z,6.60
2022-12-07T12:39:52.897Z,9.60
2022-12-07T12:40:52.780Z,6.40
2022-12-07T12:41:52.768Z,6.80
2022-12-07T12:42:52.748Z,5.90
2022-12-07T12:43:52.981Z,7.10
2022-12-07T12:44:52.717Z,6.20
2022-12-07T12:45:52.762Z,6.20
2022-12-07T12:46:52.700Z,6.30
2022-12-07T12:47:52.688Z,6.40
2022-12-07T12:48:52.668Z,6.90
2022-12-07T12:49:52.700Z,5.90
2022-12-07T12:50:52.649Z,8.20
2022-12-07T12:51:53.589Z,4.90
2022-12-07T12:52:52.625Z,9.70
2022-12-07T12:53:52.613Z,6.00
2022-12-07T12:54:52.595Z,6.70
2022-12-07T12:55:52.571Z,14.90
2022-12-07T12:56:52.562Z,6.50
2022-12-07T12:57:56.045Z,6.50
2022-12-07T12:58:52.531Z,5.50
2022-12-07T12:59:52.532Z,5.20
2022-12-07T13:00:52.516Z,5.00
2022-12-07T13:01:52.561Z,4.60
2022-12-07T13:02:52.574Z,4.80
2022-12-07T13:03:52.482Z,7.00